Time;durP1;ratioP1;P1;durP2;ratioP2;P2;SDS_P1;SDS_P2;PMS_P1;PMS_P2;Temp;Humidity;BMP_temperature;BMP_pressure;BME280_temperature;BME280_humidity;BME280_pressure;Samples;Min_cycle;Max_cycle;Signal;HPM_P1;HPM_P2
2021/10/03 00:01:06;;;;;;;0.57;0.38;;;17.00;99.90;;;;;;5138550;27;20065;-73
2021/10/03 00:03:31;;;;;;;0.70;0.50;;;17.00;99.90;;;;;;5142052;27;20450;-75
2021/10/03 00:05:59;;;;;;;0.40;0.40;;;17.00;99.90;;;;;;5127277;27;20023;-71
2021/10/03 00:08:26;;;;;;;1.48;0.60;;;17.00;99.90;;;;;;5118860;27;20432;-72
2021/10/03 00:10:53;;;;;;;0.40;0.40;;;17.00;99.90;;;;;;5117804;27;20390;-71
2021/10/03 00:13:19;;;;;;;0.65;0.43;;;17.00;99.90;;;;;;5118096;27;20050;-73
2021/10/03 00:15:45;;;;;;;0.60;0.35;;;17.00;99.90;;;;;;5101216;27;20033;-72
2021/10/03 00:18:12;;;;;;;1.58;0.60;;;17.00;99.90;;;;;;5136507;27;20031;-72
2021/10/03 00:20:38;;;;;;;1.00;0.70;;;17.00;99.90;;;;;;5117540;27;20038;-71
2021/10/03 00:23:04;;;;;;;0.50;0.50;;;17.10;99.90;;;;;;5134656;27;20023;-73
2021/10/03 00:25:30;;;;;;;3.20;0.63;;;17.10;99.90;;;;;;5136338;27;20055;-82
2021/10/03 00:27:56;;;;;;;0.60;0.50;;;17.20;99.90;;;;;;5118838;27;20019;-82
2021/10/03 00:30:23;;;;;;;0.77;0.60;;;17.20;99.90;;;;;;5137224;27;20100;-84
2021/10/03 00:32:49;;;;;;;1.65;0.60;;;17.10;99.90;;;;;;5135677;27;20027;-81
2021/10/03 00:35:16;;;;;;;1.08;0.60;;;17.10;99.90;;;;;;5119792;27;20056;-80
2021/10/03 00:37:41;;;;;;;8.73;0.90;;;17.00;99.90;;;;;;5120034;27;20031;-84
2021/10/03 00:40:09;;;;;;;1.30;0.75;;;17.00;99.90;;;;;;5118733;27;20027;-84
2021/10/03 00:42:35;;;;;;;2.08;0.77;;;17.00;99.90;;;;;;5118154;27;20019;-85
2021/10/03 00:45:01;;;;;;;2.10;0.80;;;17.00;99.90;;;;;;5135499;27;20030;-86
2021/10/03 00:47:26;;;;;;;1.48;0.63;;;17.00;99.90;;;;;;5136912;27;20019;-84
2021/10/03 00:49:52;;;;;;;2.30;0.77;;;17.00;99.90;;;;;;5135727;27;20423;-83
2021/10/03 00:52:18;;;;;;;4.32;1.50;;;17.00;99.90;;;;;;5118362;27;20023;-84
2021/10/03 00:54:43;;;;;;;2.90;0.90;;;17.00;99.90;;;;;;5135846;27;20035;-85
2021/10/03 00:57:09;;;;;;;2.05;0.80;;;17.00;99.90;;;;;;5136306;27;20038;-74
2021/10/03 00:59:35;;;;;;;4.00;0.93;;;17.00;99.90;;;;;;5134685;27;20485;-82
2021/10/03 01:02:01;;;;;;;3.00;1.25;;;17.00;99.90;;;;;;5117462;27;20050;-83
2021/10/03 01:04:27;;;;;;;3.70;0.80;;;16.90;99.90;;;;;;5134365;27;20030;-72
2021/10/03 01:06:53;;;;;;;4.05;0.85;;;16.90;99.90;;;;;;5134079;27;20023;-77
2021/10/03 01:09:19;;;;;;;8.45;1.10;;;16.90;99.90;;;;;;5099761;27;20390;-72
2021/10/03 01:11:45;;;;;;;7.03;1.45;;;16.90;99.90;;;;;;5116562;27;20400;-72
2021/10/03 01:14:11;;;;;;;6.15;2.22;;;16.90;99.90;;;;;;5116224;27;20062;-71
2021/10/03 01:16:38;;;;;;;8.70;2.33;;;16.90;99.90;;;;;;5134899;27;20023;-79
2021/10/03 01:19:04;;;;;;;7.00;1.10;;;16.90;99.90;;;;;;5116576;27;20111;-77
2021/10/03 01:21:30;;;;;;;7.57;1.58;;;16.80;99.90;;;;;;5134725;27;20026;-71
2021/10/03 01:23:56;;;;;;;4.18;0.73;;;16.90;99.90;;;;;;5099318;27;20103;-71
2021/10/03 01:26:22;;;;;;;3.92;1.67;;;16.80;99.90;;;;;;5133851;27;20072;-72
2021/10/03 01:28:53;;;;;;;3.70;0.88;;;16.70;99.90;;;;;;5133528;27;20027;-70
2021/10/03 01:31:19;;;;;;;5.30;1.30;;;16.80;99.90;;;;;;5117072;27;20114;-70
2021/10/03 01:33:45;;;;;;;11.68;2.08;;;16.70;99.90;;;;;;5116226;27;20035;-71
2021/10/03 01:36:10;;;;;;;6.30;1.02;;;16.70;99.90;;;;;;5099504;27;20076;-71
2021/10/03 01:38:37;;;;;;;4.07;1.15;;;16.60;99.90;;;;;;5116067;27;20481;-70
2021/10/03 01:41:02;;;;;;;5.72;1.30;;;16.50;99.90;;;;;;5116345;27;20031;-70
2021/10/03 01:43:28;;;;;;;5.28;1.50;;;16.40;99.90;;;;;;5115949;27;20020;-70
2021/10/03 01:45:54;;;;;;;7.88;1.63;;;16.40;99.90;;;;;;5133068;27;20023;-69
2021/10/03 01:48:23;;;;;;;7.53;1.55;;;16.30;99.90;;;;;;5133042;27;20027;-70
2021/10/03 01:50:56;;;;;;;8.35;1.58;;;16.30;99.90;;;;;;5116076;27;20019;-70
2021/10/03 01:53:24;;;;;;;7.25;1.67;;;16.20;99.90;;;;;;5134161;27;20114;-70
2021/10/03 01:55:51;;;;;;;9.50;1.83;;;16.20;99.90;;;;;;5132839;27;20491;-70
2021/10/03 01:58:18;;;;;;;7.70;2.35;;;16.10;99.90;;;;;;5115839;28;20358;-70
2021/10/03 02:00:45;;;;;;;7.95;2.20;;;16.00;99.90;;;;;;5116004;27;20027;-69
2021/10/03 02:03:11;;;;;;;6.45;1.60;;;16.00;99.90;;;;;;5134305;27;20031;-72
2021/10/03 02:05:39;;;;;;;5.55;1.38;;;16.00;99.90;;;;;;5116209;27;20020;-70
2021/10/03 02:08:07;;;;;;;8.90;1.60;;;15.90;99.90;;;;;;5132906;27;20469;-69
2021/10/03 02:10:34;;;;;;;9.65;3.28;;;16.00;99.90;;;;;;5115783;28;20098;-69
2021/10/03 02:13:00;;;;;;;11.10;1.92;;;15.90;99.90;;;;;;5117577;28;20054;-85
2021/10/03 02:15:26;;;;;;;16.90;3.42;;;15.90;99.90;;;;;;5134280;28;20092;-85
2021/10/03 02:17:51;;;;;;;10.52;2.92;;;15.80;99.90;;;;;;5134455;28;20034;-82
2021/10/03 02:20:18;;;;;;;4.75;1.55;;;15.80;99.90;;;;;;5116510;28;20035;-74
2021/10/03 02:22:44;;;;;;;8.88;1.63;;;15.80;99.90;;;;;;5133217;28;20019;-83
2021/10/03 02:25:11;;;;;;;7.82;2.20;;;15.80;99.90;;;;;;5116225;28;20019;-76
2021/10/03 02:27:37;;;;;;;16.85;2.75;;;15.70;99.90;;;;;;5116202;28;20050;-83
2021/10/03 02:30:05;;;;;;;8.82;1.60;;;15.70;99.90;;;;;;5133128;27;20472;-80
2021/10/03 02:32:31;;;;;;;9.60;2.17;;;15.70;99.90;;;;;;5133331;27;20027;-82
2021/10/03 02:34:56;;;;;;;8.35;2.25;;;15.70;99.90;;;;;;5133045;28;20038;-72
2021/10/03 02:37:23;;;;;;;11.93;2.50;;;15.60;99.90;;;;;;5115981;28;20462;-75
2021/10/03 02:39:49;;;;;;;8.18;1.85;;;15.60;99.90;;;;;;5115942;28;20030;-76
2021/10/03 02:42:15;;;;;;;9.90;2.28;;;15.60;99.90;;;;;;5132960;27;20020;-70
2021/10/03 02:44:40;;;;;;;8.82;1.65;;;15.60;99.90;;;;;;5134224;27;20038;-70
2021/10/03 02:47:11;;;;;;;5.32;1.55;;;15.50;99.90;;;;;;5115853;28;20019;-77
2021/10/03 02:49:38;;;;;;;5.68;1.38;;;15.20;99.90;;;;;;5133380;28;20027;-73
2021/10/03 02:52:05;;;;;;;6.93;1.20;;;15.10;99.90;;;;;;5099099;28;20037;-76
2021/10/03 02:54:30;;;;;;;6.90;1.30;;;14.90;99.90;;;;;;5116407;28;20028;-78
2021/10/03 02:56:56;;;;;;;7.03;1.00;;;14.70;99.90;;;;;;5098690;28;20437;-74
2021/10/03 02:59:21;;;;;;;5.93;1.13;;;14.70;99.90;;;;;;5134530;27;20076;-83
2021/10/03 03:01:47;;;;;;;3.25;0.85;;;14.70;99.90;;;;;;5099714;28;20477;-75
2021/10/03 03:04:13;;;;;;;5.30;1.75;;;14.60;99.90;;;;;;5098961;28;20469;-72
2021/10/03 03:06:39;;;;;;;7.78;1.17;;;14.60;99.90;;;;;;5099750;27;20028;-71
2021/10/03 03:09:05;;;;;;;10.35;1.30;;;14.70;99.90;;;;;;5137128;27;20090;-74
2021/10/03 03:11:30;;;;;;;7.63;1.10;;;14.70;99.90;;;;;;5137621;27;20042;-72
2021/10/03 03:13:56;;;;;;;16.73;1.80;;;14.70;99.90;;;;;;5138574;27;20080;-76
2021/10/03 03:16:21;;;;;;;8.63;2.33;;;14.70;99.90;;;;;;5137675;27;20063;-71
2021/10/03 03:18:47;;;;;;;10.27;1.70;;;14.70;99.90;;;;;;5138459;27;20026;-77
2021/10/03 03:21:13;;;;;;;10.70;1.60;;;14.70;99.90;;;;;;5139158;27;20120;-77
2021/10/03 03:23:39;;;;;;;7.03;2.00;;;14.70;99.90;;;;;;5123630;27;20027;-70
2021/10/03 03:26:04;;;;;;;15.25;2.35;;;14.60;99.90;;;;;;5136106;27;20027;-71
2021/10/03 03:28:30;;;;;;;4.68;0.98;;;14.60;99.90;;;;;;5137460;27;20050;-71
2021/10/03 03:30:55;;;;;;;8.65;1.42;;;14.60;99.90;;;;;;5118651;27;20061;-72
2021/10/03 03:33:21;;;;;;;7.30;1.42;;;14.60;99.90;;;;;;5118786;27;20486;-71
2021/10/03 03:35:47;;;;;;;10.55;1.65;;;14.60;99.90;;;;;;5135837;27;20027;-71
2021/10/03 03:38:12;;;;;;;4.63;1.48;;;14.50;99.90;;;;;;5135859;27;20397;-70
2021/10/03 03:40:38;;;;;;;11.50;1.63;;;14.40;99.90;;;;;;5101775;27;20030;-71
2021/10/03 03:43:04;;;;;;;7.28;1.00;;;14.40;99.90;;;;;;5119257;27;20020;-71
2021/10/03 03:45:30;;;;;;;8.55;1.27;;;14.30;99.90;;;;;;5102892;27;20027;-71
2021/10/03 03:47:56;;;;;;;6.13;1.27;;;14.30;99.90;;;;;;5136577;27;20389;-71
2021/10/03 03:50:22;;;;;;;6.80;1.58;;;14.20;99.90;;;;;;5119233;27;20042;-73
2021/10/03 03:52:48;;;;;;;2.15;0.50;;;14.10;99.90;;;;;;5136138;27;20530;-70
2021/10/03 03:55:14;;;;;;;4.85;1.23;;;14.10;99.90;;;;;;5135945;27;20040;-70
2021/10/03 03:57:39;;;;;;;2.92;0.80;;;14.10;99.90;;;;;;5135465;27;20019;-71
2021/10/03 04:00:07;;;;;;;3.78;0.63;;;14.00;99.90;;;;;;5135571;27;20114;-70
2021/10/03 04:02:33;;;;;;;6.40;1.00;;;14.00;99.90;;;;;;5118133;27;20030;-70
2021/10/03 04:04:58;;;;;;;6.72;1.27;;;14.00;99.90;;;;;;5118272;27;20023;-71
2021/10/03 04:07:24;;;;;;;4.30;0.70;;;13.90;99.90;;;;;;5117951;27;20023;-71
2021/10/03 04:09:50;;;;;;;6.05;0.50;;;14.00;99.90;;;;;;5136361;27;20146;-71
2021/10/03 04:12:16;;;;;;;11.15;1.05;;;14.00;99.90;;;;;;5117668;27;20061;-71
2021/10/03 04:14:41;;;;;;;7.22;1.48;;;14.00;99.90;;;;;;5135008;27;20049;-71
2021/10/03 04:17:07;;;;;;;14.23;1.75;;;14.00;99.90;;;;;;5134929;27;20034;-71
2021/10/03 04:19:33;;;;;;;12.27;1.90;;;14.00;99.90;;;;;;5117926;27;20051;-75
2021/10/03 04:21:59;;;;;;;7.00;0.85;;;14.10;99.90;;;;;;5117781;27;20020;-78
2021/10/03 04:24:24;;;;;;;3.03;0.50;;;14.00;99.90;;;;;;5117348;27;20023;-71
2021/10/03 04:26:50;;;;;;;3.75;2.00;;;14.00;99.90;;;;;;5100638;27;20019;-74
2021/10/03 04:29:16;;;;;;;1.63;0.73;;;14.00;99.90;;;;;;5117808;27;20035;-80
2021/10/03 04:31:41;;;;;;;2.92;0.68;;;14.00;99.90;;;;;;5117461;27;20469;-74
2021/10/03 04:34:08;;;;;;;5.20;1.80;;;14.00;99.90;;;;;;5134692;27;20035;-81
2021/10/03 04:36:34;;;;;;;5.88;1.50;;;14.10;99.90;;;;;;5134454;27;20023;-79
2021/10/03 04:39:00;;;;;;;11.15;0.65;;;14.00;99.90;;;;;;5135704;27;20019;-74
2021/10/03 04:41:25;;;;;;;2.50;0.57;;;14.00;99.90;;;;;;5117323;27;20439;-77
2021/10/03 04:43:51;;;;;;;5.32;1.60;;;14.10;99.90;;;;;;5117236;27;20476;-79
2021/10/03 04:46:17;;;;;;;7.68;1.42;;;14.00;99.90;;;;;;5117217;27;20063;-77
2021/10/03 04:48:42;;;;;;;6.07;0.82;;;14.00;99.90;;;;;;5134603;27;20027;-79
2021/10/03 04:51:08;;;;;;;7.25;0.75;;;14.00;99.90;;;;;;5117325;27;20019;-78
2021/10/03 04:53:33;;;;;;;2.47;0.70;;;14.00;99.90;;;;;;5116947;27;20069;-76
2021/10/03 04:55:59;;;;;;;7.47;1.23;;;14.00;99.90;;;;;;5134197;27;20030;-78
2021/10/03 04:58:25;;;;;;;2.97;0.82;;;14.00;99.90;;;;;;5117225;27;20023;-77
2021/10/03 05:00:51;;;;;;;4.40;0.68;;;14.00;99.90;;;;;;5134191;27;20062;-80
2021/10/03 05:03:18;;;;;;;2.65;0.50;;;13.90;99.90;;;;;;5134538;27;20016;-81
2021/10/03 05:05:43;;;;;;;9.10;1.02;;;14.00;99.90;;;;;;5134221;27;20030;-79
2021/10/03 05:08:12;;;;;;;6.18;1.15;;;13.90;99.90;;;;;;5134015;27;20027;-80
2021/10/03 05:10:41;;;;;;;9.82;1.80;;;13.90;99.90;;;;;;5133995;27;20022;-81
2021/10/03 05:13:06;;;;;;;4.90;0.82;;;13.90;99.90;;;;;;5133586;27;20374;-78
2021/10/03 05:15:32;;;;;;;6.93;0.90;;;13.90;99.90;;;;;;5133843;27;20035;-80
2021/10/03 05:17:59;;;;;;;11.55;0.90;;;14.00;99.90;;;;;;5134122;27;20039;-76
2021/10/03 05:20:24;;;;;;;5.53;0.90;;;13.90;99.90;;;;;;5116359;27;20534;-79
2021/10/03 05:22:50;;;;;;;7.63;0.85;;;13.90;99.90;;;;;;5099522;27;20058;-79
2021/10/03 05:25:16;;;;;;;7.88;1.20;;;13.90;99.90;;;;;;5134849;27;20027;-80
2021/10/03 05:27:41;;;;;;;5.00;1.20;;;13.90;99.90;;;;;;5116561;27;20031;-80
2021/10/03 05:30:08;;;;;;;3.17;0.65;;;13.90;99.90;;;;;;5115853;27;20023;-80
2021/10/03 05:32:34;;;;;;;2.92;0.95;;;13.90;99.90;;;;;;5116324;27;20030;-79
2021/10/03 05:34:59;;;;;;;2.78;0.80;;;13.90;99.90;;;;;;5116231;27;20126;-78
2021/10/03 05:37:25;;;;;;;2.05;0.80;;;13.90;99.90;;;;;;5099448;27;20075;-78
2021/10/03 05:39:50;;;;;;;12.07;1.77;;;13.90;99.90;;;;;;5116407;27;20050;-80
2021/10/03 05:42:16;;;;;;;2.42;0.60;;;14.00;99.90;;;;;;5133186;27;20032;-79
2021/10/03 05:44:42;;;;;;;4.00;1.15;;;14.00;99.90;;;;;;5133256;27;20027;-81
2021/10/03 05:47:07;;;;;;;4.20;0.77;;;13.90;99.90;;;;;;5116302;27;20019;-80
2021/10/03 05:49:33;;;;;;;4.80;0.60;;;13.90;99.90;;;;;;5134638;27;20031;-70
2021/10/03 05:51:58;;;;;;;3.22;0.93;;;13.90;99.90;;;;;;5133164;27;20024;-71
2021/10/03 05:54:24;;;;;;;4.90;0.73;;;13.80;99.90;;;;;;5134233;27;20042;-72
2021/10/03 05:56:49;;;;;;;2.67;0.80;;;13.80;99.90;;;;;;5134769;27;20027;-71
2021/10/03 05:59:15;;;;;;;3.72;1.17;;;13.70;99.90;;;;;;5115704;27;20031;-73
2021/10/03 06:01:41;;;;;;;3.25;0.90;;;13.70;99.90;;;;;;5115749;27;20019;-71
2021/10/03 06:04:07;;;;;;;5.25;1.42;;;13.70;99.90;;;;;;5134225;27;20377;-71
2021/10/03 06:06:33;;;;;;;5.97;0.77;;;13.70;99.90;;;;;;5132976;27;20023;-71
2021/10/03 06:08:58;;;;;;;4.57;0.95;;;13.70;99.90;;;;;;5115790;27;20442;-69
2021/10/03 06:11:24;;;;;;;4.63;0.75;;;13.70;99.90;;;;;;5133104;28;20485;-73
2021/10/03 06:13:50;;;;;;;4.32;1.00;;;13.80;99.90;;;;;;5132748;28;20075;-74
2021/10/03 06:16:16;;;;;;;3.95;1.63;;;13.80;99.90;;;;;;5098648;28;20027;-72
2021/10/03 06:18:42;;;;;;;5.20;1.00;;;13.80;99.90;;;;;;5132892;28;20550;-71
2021/10/03 06:21:14;;;;;;;4.43;1.00;;;13.80;99.90;;;;;;5132787;27;20039;-71
2021/10/03 06:23:41;;;;;;;3.88;1.13;;;13.80;99.90;;;;;;5132741;27;20019;-72
2021/10/03 06:26:07;;;;;;;9.13;1.38;;;13.80;99.90;;;;;;5133069;28;20111;-73
2021/10/03 06:28:33;;;;;;;3.03;0.93;;;13.80;99.90;;;;;;5132963;28;20063;-73
2021/10/03 06:30:59;;;;;;;3.67;0.75;;;13.80;99.90;;;;;;5134051;28;20024;-75
2021/10/03 06:33:25;;;;;;;3.97;0.70;;;13.80;99.90;;;;;;5115606;28;20035;-76
2021/10/03 06:35:51;;;;;;;5.05;1.15;;;13.80;99.90;;;;;;5132876;28;20028;-76
2021/10/03 06:38:16;;;;;;;4.90;1.02;;;13.80;99.90;;;;;;5132884;28;20019;-75
2021/10/03 06:40:42;;;;;;;4.82;1.02;;;13.80;99.90;;;;;;5133225;27;20079;-72
2021/10/03 06:43:07;;;;;;;2.50;0.68;;;13.80;99.90;;;;;;5136149;27;20024;-72
2021/10/03 06:45:33;;;;;;;5.85;1.88;;;13.80;99.90;;;;;;5137401;27;20019;-82
2021/10/03 06:47:59;;;;;;;2.03;1.00;;;13.80;99.90;;;;;;5137520;27;20015;-72
2021/10/03 06:50:26;;;;;;;5.45;0.88;;;13.80;99.90;;;;;;5120292;27;20389;-76
2021/10/03 06:52:51;;;;;;;8.05;1.52;;;13.90;99.90;;;;;;5120595;27;20024;-72
2021/10/03 06:55:17;;;;;;;4.38;1.20;;;13.80;99.90;;;;;;5136787;27;20165;-81
2021/10/03 06:57:43;;;;;;;7.65;1.48;;;13.80;99.90;;;;;;5120360;27;20102;-79
2021/10/03 07:00:09;;;;;;;5.85;2.05;;;13.80;99.90;;;;;;5136637;27;20461;-72
2021/10/03 07:02:34;;;;;;;5.90;1.35;;;13.80;99.90;;;;;;5119382;27;20031;-73
2021/10/03 07:05:00;;;;;;;3.65;0.85;;;13.90;99.90;;;;;;5102250;27;20027;-74
2021/10/03 07:07:28;;;;;;;2.25;0.65;;;13.80;99.90;;;;;;5119167;27;20477;-72
2021/10/03 07:09:54;;;;;;;2.80;1.02;;;13.90;99.90;;;;;;5136284;27;20083;-71
2021/10/03 07:12:19;;;;;;;7.63;2.00;;;14.00;99.90;;;;;;5136090;27;20389;-75
2021/10/03 07:14:45;;;;;;;4.57;1.17;;;14.10;99.90;;;;;;5119075;27;20039;-73
2021/10/03 07:17:12;;;;;;;3.13;1.30;;;14.00;99.90;;;;;;5102271;27;20385;-74
2021/10/03 07:19:38;;;;;;;2.85;0.82;;;14.10;99.90;;;;;;5119285;27;20050;-75
2021/10/03 07:22:04;;;;;;;5.15;1.42;;;14.20;99.90;;;;;;5119053;27;20023;-74
2021/10/03 07:24:32;;;;;;;3.30;1.02;;;14.20;99.90;;;;;;5119021;27;20024;-73
2021/10/03 07:26:57;;;;;;;5.25;0.98;;;14.20;99.90;;;;;;5137621;27;20023;-74
2021/10/03 07:29:23;;;;;;;4.18;1.15;;;14.20;99.90;;;;;;5136026;27;20434;-72
2021/10/03 07:31:49;;;;;;;2.85;1.15;;;14.20;99.90;;;;;;5118926;27;20502;-74
2021/10/03 07:34:15;;;;;;;4.13;0.90;;;14.20;99.90;;;;;;5137535;27;20031;-72
2021/10/03 07:36:40;;;;;;;5.40;2.08;;;14.30;99.90;;;;;;5136674;27;20030;-73
2021/10/03 07:39:06;;;;;;;2.63;1.10;;;14.40;99.90;;;;;;5138173;27;20034;-72
2021/10/03 07:41:32;;;;;;;4.10;1.25;;;14.40;99.90;;;;;;5120053;27;20031;-72
2021/10/03 07:43:58;;;;;;;5.45;1.33;;;14.50;99.90;;;;;;5120017;27;20023;-73
2021/10/03 07:46:23;;;;;;;1.73;0.82;;;14.60;99.90;;;;;;5104359;27;20066;-73
2021/10/03 07:48:49;;;;;;;2.22;0.80;;;14.50;99.90;;;;;;5121749;27;20022;-77
2021/10/03 07:51:15;;;;;;;6.00;1.00;;;14.60;99.90;;;;;;5138974;27;20031;-72
2021/10/03 07:53:42;;;;;;;1.80;0.70;;;14.60;99.90;;;;;;5118362;27;20023;-73
2021/10/03 07:56:07;;;;;;;3.38;0.75;;;14.60;99.90;;;;;;5118914;27;20026;-72
2021/10/03 07:58:33;;;;;;;5.35;1.25;;;14.60;99.90;;;;;;5119216;27;20036;-72
2021/10/03 08:00:59;;;;;;;3.90;0.57;;;14.60;99.90;;;;;;5137285;27;20039;-73
2021/10/03 08:03:24;;;;;;;4.88;0.75;;;14.60;99.90;;;;;;5135846;27;20030;-72
2021/10/03 08:05:50;;;;;;;4.00;1.13;;;14.60;99.90;;;;;;5118705;27;20026;-74
2021/10/03 08:08:16;;;;;;;2.75;0.80;;;14.60;99.90;;;;;;5135941;27;20027;-75
2021/10/03 08:10:42;;;;;;;2.72;1.40;;;14.60;99.90;;;;;;5101927;27;20030;-76
2021/10/03 08:13:08;;;;;;;2.53;1.08;;;14.50;99.90;;;;;;5118579;27;20070;-74
2021/10/03 08:15:35;;;;;;;3.20;0.80;;;14.60;99.90;;;;;;5135387;27;20035;-74
2021/10/03 08:18:02;;;;;;;2.30;0.70;;;14.60;99.90;;;;;;5136336;27;20039;-76
2021/10/03 08:20:27;;;;;;;4.43;0.80;;;14.60;99.90;;;;;;5101026;27;20477;-71
2021/10/03 08:22:53;;;;;;;4.65;0.82;;;14.60;99.90;;;;;;5136308;27;20034;-73
2021/10/03 08:25:19;;;;;;;6.63;0.80;;;14.60;99.90;;;;;;5134694;27;20019;-71
2021/10/03 08:27:45;;;;;;;2.40;0.65;;;14.60;99.90;;;;;;5136379;27;20087;-72
2021/10/03 08:30:11;;;;;;;1.95;1.02;;;14.50;99.90;;;;;;5117855;27;20026;-72
2021/10/03 08:32:37;;;;;;;3.35;0.93;;;14.50;99.90;;;;;;5135845;27;20029;-72
2021/10/03 08:35:04;;;;;;;5.22;1.00;;;14.50;99.90;;;;;;5134702;27;20038;-70
2021/10/03 08:37:30;;;;;;;1.05;0.50;;;14.50;99.90;;;;;;5134658;27;20031;-73
2021/10/03 08:39:56;;;;;;;7.32;2.97;;;14.50;99.90;;;;;;5100536;27;20024;-73
2021/10/03 08:42:22;;;;;;;4.85;2.10;;;14.40;99.90;;;;;;5134604;27;20019;-77
2021/10/03 08:44:48;;;;;;;4.80;0.75;;;14.40;99.90;;;;;;5117309;27;20023;-70
2021/10/03 08:47:14;;;;;;;7.00;0.80;;;14.40;99.90;;;;;;5134256;27;20489;-74
2021/10/03 08:49:40;;;;;;;8.88;1.17;;;14.50;99.90;;;;;;5117234;27;20102;-71
2021/10/03 08:52:06;;;;;;;1.95;0.60;;;14.40;99.90;;;;;;5134285;27;20151;-70
2021/10/03 08:54:39;;;;;;;3.03;0.70;;;14.60;99.90;;;;;;5117137;27;20117;-72
2021/10/03 08:57:06;;;;;;;0.85;0.50;;;14.50;99.90;;;;;;5134262;27;20024;-72
2021/10/03 08:59:32;;;;;;;1.40;0.70;;;14.50;99.90;;;;;;5134725;27;20393;-78
2021/10/03 09:01:58;;;;;;;2.88;1.55;;;14.50;99.90;;;;;;5135676;27;20023;-76
2021/10/03 09:04:33;;;;;;;2.70;1.48;;;14.50;99.90;;;;;;5135321;27;20079;-78
2021/10/03 09:07:09;;;;;;;1.00;0.70;;;14.50;99.90;;;;;;5135718;27;20015;-75
2021/10/03 09:09:55;;;;;;;0.95;0.55;;;14.40;99.90;;;;;;5135608;27;20026;-82
2021/10/03 09:12:35;;;;;;;0.80;0.43;;;14.40;99.90;;;;;;5134493;27;20015;-79
2021/10/03 09:15:05;;;;;;;9.63;0.73;;;14.50;99.90;;;;;;5102005;27;20042;-82
2021/10/03 09:17:31;;;;;;;1.15;0.50;;;14.50;99.90;;;;;;5135554;27;20023;-71
2021/10/03 09:20:07;;;;;;;3.13;0.98;;;14.50;99.90;;;;;;5116794;27;20019;-76
2021/10/03 09:23:04;;;;;;;3.40;0.40;;;14.40;99.90;;;;;;5133774;27;20076;-77
2021/10/03 09:25:40;;;;;;;1.02;0.60;;;14.50;99.90;;;;;;5133579;27;20415;-72
2021/10/03 09:28:30;;;;;;;0.60;0.35;;;14.50;99.90;;;;;;5133756;27;20019;-75
2021/10/03 09:31:15;;;;;;;1.50;0.50;;;14.60;99.90;;;;;;5116570;27;20465;-76
2021/10/03 09:33:50;;;;;;;2.25;0.55;;;14.70;99.90;;;;;;5116564;27;20435;-71
2021/10/03 09:36:22;;;;;;;2.58;0.30;;;14.80;99.90;;;;;;5116233;27;20389;-70
2021/10/03 09:38:53;;;;;;;0.30;0.22;;;14.90;99.90;;;;;;5116208;27;20015;-71
2021/10/03 09:41:21;;;;;;;3.95;0.55;;;14.90;99.90;;;;;;5133437;27;20027;-72
2021/10/03 09:43:48;;;;;;;3.30;0.50;;;14.90;99.90;;;;;;5099923;27;20439;-75
2021/10/03 09:46:41;;;;;;;1.25;0.30;;;14.90;99.90;;;;;;5133419;27;20500;-71
2021/10/03 09:49:18;;;;;;;0.47;0.35;;;14.90;99.90;;;;;;5133206;27;20019;-71
2021/10/03 09:51:49;;;;;;;1.50;0.35;;;14.90;99.90;;;;;;5133184;27;20030;-71
2021/10/03 09:54:19;;;;;;;6.38;2.08;;;14.90;99.90;;;;;;5133226;27;20485;-72
2021/10/03 09:56:46;;;;;;;1.60;0.95;;;14.80;99.90;;;;;;5115952;27;20481;-72
2021/10/03 09:59:12;;;;;;;1.02;0.60;;;14.90;99.90;;;;;;5115959;27;20356;-72
2021/10/03 10:01:44;;;;;;;1.17;0.38;;;14.90;99.90;;;;;;5116092;27;20042;-74
2021/10/03 10:04:11;;;;;;;1.85;0.57;;;15.00;99.90;;;;;;5116908;28;20023;-71
2021/10/03 10:06:37;;;;;;;1.85;0.50;;;15.00;99.90;;;;;;5134032;27;20477;-72
2021/10/03 10:09:08;;;;;;;1.05;0.57;;;15.10;99.90;;;;;;5133228;27;20015;-71
2021/10/03 10:11:37;;;;;;;1.25;0.50;;;15.20;99.90;;;;;;5133079;27;20020;-74
2021/10/03 10:14:04;;;;;;;2.30;0.77;;;15.20;99.90;;;;;;5133153;28;20044;-72
2021/10/03 10:16:44;;;;;;;2.80;1.10;;;15.20;99.90;;;;;;5136741;27;20031;-71
2021/10/03 10:19:29;;;;;;;6.47;0.93;;;15.20;99.90;;;;;;5123629;27;20019;-71
2021/10/03 10:22:14;;;;;;;2.00;1.02;;;15.20;99.90;;;;;;5139832;27;20038;-71
2021/10/03 10:24:46;;;;;;;2.72;0.82;;;15.20;99.90;;;;;;5141405;27;20050;-72
2021/10/03 10:27:29;;;;;;;2.08;0.60;;;15.10;99.90;;;;;;5140312;27;20027;-71
2021/10/03 10:30:05;;;;;;;2.55;1.52;;;15.00;99.90;;;;;;5140078;27;20031;-71
2021/10/03 10:32:58;;;;;;;1.50;0.40;;;14.90;99.90;;;;;;5139458;27;20480;-72
2021/10/03 10:35:25;;;;;;;2.97;0.57;;;14.90;99.90;;;;;;5140641;27;20027;-72
2021/10/03 10:37:54;;;;;;;1.05;0.50;;;14.90;99.90;;;;;;5140686;27;20473;-70
2021/10/03 10:40:23;;;;;;;2.70;1.00;;;14.80;99.90;;;;;;5139345;27;20096;-71
2021/10/03 10:42:57;;;;;;;1.85;0.63;;;14.80;99.90;;;;;;5140592;27;20076;-70
2021/10/03 10:45:44;;;;;;;1.17;0.32;;;14.80;99.90;;;;;;5139421;27;20031;-74
2021/10/03 10:48:09;;;;;;;1.40;0.40;;;14.90;99.90;;;;;;5140722;27;20098;-79
2021/10/03 10:50:53;;;;;;;1.73;0.43;;;15.00;99.90;;;;;;5140992;27;20062;-82
2021/10/03 10:53:24;;;;;;;2.17;0.50;;;15.00;99.90;;;;;;5139666;27;20029;-73
2021/10/03 10:56:01;;;;;;;2.95;0.70;;;15.00;99.90;;;;;;5139345;27;20454;-72
2021/10/03 10:58:27;;;;;;;1.48;0.50;;;15.00;99.90;;;;;;5122021;27;20469;-67
2021/10/03 11:00:58;;;;;;;1.55;0.63;;;15.00;99.90;;;;;;5139363;27;20076;-70
2021/10/03 11:03:42;;;;;;;3.95;0.68;;;15.00;99.90;;;;;;5139416;27;20370;-69
2021/10/03 11:06:34;;;;;;;1.90;0.85;;;15.00;99.90;;;;;;5139021;27;20015;-71
2021/10/03 11:09:03;;;;;;;4.32;0.80;;;15.00;99.90;;;;;;5140243;27;20499;-72
2021/10/03 11:11:30;;;;;;;2.33;0.52;;;14.90;99.90;;;;;;5122587;27;20015;-71
2021/10/03 11:13:59;;;;;;;6.55;0.95;;;15.00;99.90;;;;;;5139066;27;20043;-71
2021/10/03 11:16:33;;;;;;;2.10;0.68;;;14.90;99.90;;;;;;5139633;27;20062;-69
2021/10/03 11:19:16;;;;;;;1.80;0.65;;;14.90;99.90;;;;;;5122193;27;20106;-72
2021/10/03 11:21:45;;;;;;;1.55;0.70;;;15.00;99.90;;;;;;5140479;27;20019;-71
2021/10/03 11:24:18;;;;;;;2.42;1.00;;;15.00;99.90;;;;;;5140889;27;20414;-74
2021/10/03 11:26:48;;;;;;;2.17;0.68;;;15.00;99.90;;;;;;5139566;27;20027;-73
2021/10/03 11:29:15;;;;;;;2.25;0.73;;;15.10;99.90;;;;;;5136236;27;20110;-80
2021/10/03 11:31:54;;;;;;;4.25;0.93;;;15.10;99.90;;;;;;5120981;27;20027;-81
2021/10/03 11:34:33;;;;;;;1.05;0.60;;;15.10;99.90;;;;;;5124040;27;20481;-73
2021/10/03 11:37:15;;;;;;;2.05;0.70;;;15.00;99.90;;;;;;5141988;27;20023;-71
2021/10/03 11:39:54;;;;;;;1.58;0.50;;;15.00;99.90;;;;;;5143025;27;20015;-70
2021/10/03 11:42:25;;;;;;;1.27;0.57;;;15.00;99.90;;;;;;5142785;27;20031;-73
2021/10/03 11:45:20;;;;;;;1.63;1.23;;;15.00;99.90;;;;;;5138008;27;20019;-76
2021/10/03 11:48:00;;;;;;;7.65;0.77;;;15.00;99.90;;;;;;5128383;27;20114;-72
2021/10/03 11:50:44;;;;;;;3.00;0.90;;;14.90;99.90;;;;;;5120111;27;20027;-73
2021/10/03 11:53:19;;;;;;;1.02;0.52;;;14.80;99.90;;;;;;5136268;27;20027;-77
2021/10/03 11:55:49;;;;;;;1.50;0.80;;;14.80;99.90;;;;;;5119555;27;20140;-71
2021/10/03 11:58:17;;;;;;;2.92;1.00;;;14.80;99.90;;;;;;5137260;27;20126;-76
2021/10/03 12:00:54;;;;;;;5.28;1.38;;;14.80;99.90;;;;;;5135571;27;20414;-73
2021/10/03 12:03:20;;;;;;;2.55;0.68;;;14.90;99.90;;;;;;5135343;27;20023;-77
2021/10/03 12:05:47;;;;;;;2.67;0.57;;;14.80;99.90;;;;;;5118273;27;20019;-80
2021/10/03 12:08:15;;;;;;;5.50;1.00;;;14.80;99.90;;;;;;5135609;27;20020;-72
2021/10/03 12:10:46;;;;;;;1.67;0.50;;;14.80;99.90;;;;;;5135356;27;20584;-79
2021/10/03 12:13:22;;;;;;;1.83;0.55;;;14.90;99.90;;;;;;5135307;27;20039;-75
2021/10/03 12:16:01;;;;;;;1.90;0.80;;;14.90;99.90;;;;;;5118249;27;20537;-77
2021/10/03 12:18:27;;;;;;;1.52;0.38;;;15.00;99.90;;;;;;5136563;27;20024;-84
2021/10/03 12:21:05;;;;;;;3.10;0.40;;;15.00;99.90;;;;;;5135866;27;20027;-78
2021/10/03 12:24:01;;;;;;;1.08;0.75;;;15.00;99.90;;;;;;5118425;27;20019;-79
2021/10/03 12:26:48;;;;;;;1.48;0.60;;;15.00;99.90;;;;;;5117374;27;20031;-76
2021/10/03 12:29:20;;;;;;;1.40;0.55;;;15.10;99.90;;;;;;5135268;27;20034;-71
2021/10/03 12:31:52;;;;;;;6.13;0.60;;;15.20;99.90;;;;;;5118211;27;20031;-71
2021/10/03 12:34:23;;;;;;;1.75;0.55;;;15.20;99.90;;;;;;5136208;27;20034;-70
2021/10/03 12:36:49;;;;;;;1.58;0.80;;;15.30;99.90;;;;;;5136380;27;20033;-73
2021/10/03 12:39:18;;;;;;;3.50;0.52;;;15.40;99.90;;;;;;5135188;27;20024;-74
2021/10/03 12:41:44;;;;;;;4.18;1.08;;;15.50;99.90;;;;;;5118400;27;20032;-71
2021/10/03 12:44:10;;;;;;;3.42;0.75;;;15.70;99.90;;;;;;5136268;27;20027;-69
2021/10/03 12:46:35;;;;;;;2.05;0.60;;;15.80;99.90;;;;;;5117402;27;20019;-73
2021/10/03 12:49:01;;;;;;;0.73;0.40;;;15.90;99.90;;;;;;5136017;27;20020;-71
2021/10/03 12:51:29;;;;;;;3.70;0.60;;;16.00;99.90;;;;;;5136640;27;20019;-77